createdAt,value
2022-11-28T00:01:09.470Z,40.30
2022-11-28T00:03:36.298Z,41.13
2022-11-28T00:06:07.146Z,39.83
2022-11-28T00:08:34.108Z,40.55
2022-11-28T00:11:05.474Z,38.05
2022-11-28T00:13:32.402Z,41.30
2022-11-28T00:16:00.365Z,39.35
2022-11-28T00:18:27.662Z,39.72
2022-11-28T00:21:06.016Z,37.20
2022-11-28T00:23:33.522Z,36.85
2022-11-28T00:26:08.969Z,41.35
2022-11-28T00:28:35.971Z,39.92
2022-11-28T00:31:03.272Z,39.97
2022-11-28T00:33:31.215Z,39.53
2022-11-28T00:36:02.190Z,39.55
2022-11-28T00:38:29.104Z,39.63
2022-11-28T00:41:02.883Z,39.47
2022-11-28T00:43:29.797Z,40.63
2022-11-28T00:45:56.975Z,40.25
2022-11-28T00:48:24.085Z,38.75
2022-11-28T00:50:51.122Z,38.85
2022-11-28T00:53:17.870Z,40.33
2022-11-28T00:55:44.875Z,40.10
2022-11-28T00:58:11.658Z,38.72
2022-11-28T01:00:38.943Z,39.05
2022-11-28T01:03:05.782Z,38.50
2022-11-28T01:05:32.822Z,36.63
2022-11-28T01:07:59.570Z,37.83
2022-11-28T01:10:27.256Z,38.60
2022-11-28T01:12:53.995Z,34.97
2022-11-28T01:15:21.029Z,37.53
2022-11-28T01:17:47.830Z,36.42
2022-11-28T01:20:14.949Z,37.65
2022-11-28T01:22:41.741Z,37.65
2022-11-28T01:25:08.836Z,36.22
2022-11-28T01:27:35.585Z,35.55
2022-11-28T01:30:02.703Z,36.30
2022-11-28T01:32:29.419Z,38.53
2022-11-28T01:34:56.448Z,37.60
2022-11-28T01:37:23.174Z,38.42
2022-11-28T01:39:50.249Z,36.75
2022-11-28T01:42:18.416Z,37.50
2022-11-28T01:44:48.421Z,36.80
2022-11-28T01:47:17.961Z,37.42
2022-11-28T01:49:44.972Z,37.67
2022-11-28T01:52:13.262Z,38.00
2022-11-28T01:54:40.595Z,35.78
2022-11-28T01:57:16.952Z,39.03
2022-11-28T01:59:51.444Z,36.35
2022-11-28T02:02:25.722Z,37.67
2022-11-28T02:04:52.823Z,36.72
2022-11-28T02:07:19.972Z,35.45
2022-11-28T02:09:47.069Z,37.13
2022-11-28T02:12:32.532Z,36.30
2022-11-28T02:18:05.006Z,36.47
2022-11-28T02:20:32.067Z,36.10
2022-11-28T02:23:32.657Z,35.03
2022-11-28T02:26:05.831Z,35.75
2022-11-28T02:28:46.412Z,37.08
2022-11-28T02:31:41.649Z,36.40
2022-11-28T02:34:31.879Z,35.53
2022-11-28T02:37:09.908Z,36.67
2022-11-28T02:39:42.840Z,34.90
2022-11-28T02:42:20.443Z,34.15
2022-11-28T02:45:00.671Z,34.05
2022-11-28T02:47:32.328Z,34.22
2022-11-28T02:50:38.332Z,35.53
2022-11-28T02:53:07.807Z,34.38
2022-11-28T02:55:37.949Z,32.80
2022-11-28T02:58:04.996Z,33.25
2022-11-28T03:00:36.132Z,34.55
2022-11-28T03:03:03.280Z,33.58
2022-11-28T03:05:32.894Z,35.53
2022-11-28T03:08:10.807Z,35.95
2022-11-28T03:11:01.615Z,35.90
2022-11-28T03:13:57.722Z,37.15
2022-11-28T03:16:36.647Z,36.63
2022-11-28T03:19:06.696Z,38.80
2022-11-28T03:21:40.691Z,39.55
2022-11-28T03:24:15.282Z,41.35
2022-11-28T03:27:11.691Z,40.58
2022-11-28T03:29:44.498Z,38.67
2022-11-28T03:32:18.320Z,40.50
2022-11-28T03:34:46.202Z,40.55
2022-11-28T03:37:37.544Z,40.40
2022-11-28T03:40:07.657Z,39.60
2022-11-28T03:42:40.319Z,42.70
2022-11-28T03:45:16.658Z,43.83
2022-11-28T03:47:48.311Z,43.17
2022-11-28T03:50:18.570Z,39.92
2022-11-28T03:52:50.062Z,40.65
2022-11-28T03:56:16.026Z,39.30
2022-11-28T03:59:29.990Z,36.60
2022-11-28T04:02:21.950Z,37.30
2022-11-28T04:04:51.235Z,37.97
2022-11-28T04:07:40.221Z,38.38
2022-11-28T04:10:07.576Z,38.50
2022-11-28T04:12:40.650Z,37.47
2022-11-28T04:15:38.823Z,35.22
2022-11-28T04:18:21.170Z,35.50
2022-11-28T04:21:10.374Z,37.15
2022-11-28T04:23:37.882Z,36.33
2022-11-28T04:26:11.682Z,36.88
2022-11-28T04:28:38.707Z,37.75
2022-11-28T04:31:05.931Z,38.67
2022-11-28T04:33:35.193Z,39.92
2022-11-28T04:36:01.999Z,39.40
2022-11-28T04:38:29.370Z,38.28
2022-11-28T04:41:00.765Z,39.63
2022-11-28T04:43:30.278Z,39.20
2022-11-28T04:46:00.938Z,40.20
2022-11-28T04:48:33.990Z,37.92
2022-11-28T04:51:10.375Z,39.00
2022-11-28T04:53:43.881Z,39.10
2022-11-28T04:56:17.471Z,38.58
2022-11-28T04:58:45.963Z,38.70
2022-11-28T05:01:16.252Z,38.60
2022-11-28T05:03:43.376Z,37.55
2022-11-28T05:06:10.128Z,37.47
2022-11-28T05:08:37.254Z,36.05
2022-11-28T05:11:04.012Z,35.47
2022-11-28T05:13:31.015Z,38.95
2022-11-28T05:16:00.517Z,37.33
2022-11-28T05:18:27.601Z,35.85
2022-11-28T05:20:54.583Z,33.78
2022-11-28T05:23:21.623Z,37.22
2022-11-28T05:25:48.357Z,36.50
2022-11-28T05:28:15.376Z,37.10
2022-11-28T05:30:42.084Z,36.63
2022-11-28T05:33:09.152Z,40.65
2022-11-28T05:35:39.525Z,40.13
2022-11-28T05:38:12.099Z,41.28
2022-11-28T05:40:44.217Z,41.08
2022-11-28T05:43:11.726Z,40.25
2022-11-28T05:45:42.410Z,40.38
2022-11-28T05:48:09.523Z,37.92
2022-11-28T05:50:40.088Z,39.58
2022-11-28T05:53:07.261Z,39.30
2022-11-28T05:55:34.146Z,37.28
2022-11-28T05:58:01.149Z,39.35
2022-11-28T06:00:27.908Z,38.72
2022-11-28T06:02:59.887Z,38.95
2022-11-28T06:05:42.307Z,40.47
2022-11-28T06:08:13.632Z,39.30
2022-11-28T06:10:41.134Z,38.38
2022-11-28T06:13:08.691Z,37.17
2022-11-28T06:15:38.239Z,39.92
2022-11-28T06:18:05.979Z,41.17
2022-11-28T06:20:34.877Z,41.65
2022-11-28T06:23:01.889Z,42.00
2022-11-28T06:25:28.913Z,40.83
2022-11-28T06:27:55.939Z,42.78
2022-11-28T06:30:22.699Z,40.78
2022-11-28T06:32:49.715Z,41.60
2022-11-28T06:35:16.600Z,39.90
2022-11-28T06:37:43.668Z,42.08
2022-11-28T06:40:10.513Z,43.60
2022-11-28T06:42:37.580Z,43.05
2022-11-28T06:45:05.188Z,42.08
2022-11-28T06:47:32.455Z,41.08
2022-11-28T06:49:59.164Z,43.60
2022-11-28T06:52:26.519Z,39.95
2022-11-28T06:54:53.268Z,38.72
2022-11-28T06:57:20.284Z,41.30
2022-11-28T06:59:48.597Z,39.25
2022-11-28T07:02:15.657Z,41.78
2022-11-28T07:04:42.474Z,41.78
2022-11-28T07:07:13.696Z,41.17
2022-11-28T07:09:43.368Z,40.72
2022-11-28T07:12:10.555Z,40.63
2022-11-28T07:14:37.302Z,42.95
2022-11-28T07:17:04.353Z,42.42
2022-11-28T07:19:31.108Z,38.95
2022-11-28T07:21:58.153Z,40.10
2022-11-28T07:24:24.997Z,39.70
2022-11-28T07:26:52.157Z,39.55
2022-11-28T07:29:19.171Z,38.28
2022-11-28T07:31:46.294Z,40.80
2022-11-28T07:34:13.020Z,39.85
2022-11-28T07:36:40.115Z,39.80
2022-11-28T07:39:08.678Z,42.47
2022-11-28T07:41:35.732Z,39.05
2022-11-28T07:44:03.501Z,41.78
2022-11-28T07:46:31.223Z,43.65
2022-11-28T07:48:58.020Z,41.08
2022-11-28T07:51:27.165Z,41.45
2022-11-28T07:53:54.032Z,40.70
2022-11-28T07:56:23.043Z,41.40
2022-11-28T07:58:50.139Z,41.55
2022-11-28T08:01:22.419Z,42.22
2022-11-28T08:03:49.308Z,41.50
2022-11-28T08:06:16.795Z,42.40
2022-11-28T08:08:43.796Z,41.67
2022-11-28T08:11:11.018Z,40.35
2022-11-28T08:13:37.960Z,40.95
2022-11-28T08:16:34.719Z,41.92
2022-11-28T08:19:02.143Z,43.85
2022-11-28T08:21:31.321Z,42.17
2022-11-28T08:23:59.575Z,42.03
2022-11-28T08:26:30.431Z,42.45
2022-11-28T08:29:01.284Z,43.88
2022-11-28T08:31:30.330Z,41.63
2022-11-28T08:33:58.246Z,43.92
2022-11-28T08:36:25.401Z,44.35
2022-11-28T08:41:39.396Z,43.42
2022-11-28T08:44:06.124Z,41.65
2022-11-28T08:46:33.296Z,42.38
2022-11-28T08:49:04.159Z,43.25
2022-11-28T08:51:31.799Z,42.35
2022-11-28T08:53:59.782Z,41.45
2022-11-28T08:56:27.743Z,42.35
2022-11-28T08:58:55.101Z,41.10
2022-11-28T09:01:25.978Z,40.65
2022-11-28T09:03:53.555Z,39.80
2022-11-28T09:06:21.194Z,40.90
2022-11-28T09:08:48.283Z,41.30
2022-11-28T09:11:17.380Z,40.85
2022-11-28T09:13:44.267Z,40.70
2022-11-28T09:16:11.507Z,40.97
2022-11-28T09:18:38.527Z,41.75
2022-11-28T09:21:09.333Z,41.35
2022-11-28T09:23:39.828Z,41.75
2022-11-28T09:26:14.796Z,40.05
2022-11-28T09:28:41.707Z,41.78
2022-11-28T09:31:09.219Z,41.55
2022-11-28T09:33:36.119Z,41.63
2022-11-28T09:36:16.919Z,42.58
2022-11-28T09:38:43.756Z,43.80
2022-11-28T09:41:22.604Z,45.90
2022-11-28T09:43:54.595Z,44.22
2022-11-28T09:46:27.182Z,46.35
2022-11-28T09:48:55.938Z,48.75
2022-11-28T09:51:42.253Z,52.45
2022-11-28T09:54:21.368Z,52.42
2022-11-28T09:56:49.092Z,54.00
2022-11-28T09:59:25.386Z,57.22
2022-11-28T10:02:15.670Z,57.33
2022-11-28T10:04:51.243Z,62.47
2022-11-28T10:07:30.115Z,63.80
2022-11-28T10:10:22.998Z,66.18
2022-11-28T10:13:27.389Z,68.85
2022-11-28T10:16:21.183Z,69.93
2022-11-28T10:18:55.368Z,71.35
2022-11-28T10:21:35.854Z,73.20
2022-11-28T10:24:24.402Z,72.65
2022-11-28T10:26:54.157Z,76.57
2022-11-28T10:29:25.722Z,76.97
2022-11-28T10:31:55.207Z,77.28
2022-11-28T10:34:25.317Z,78.00
2022-11-28T10:37:11.339Z,73.60
2022-11-28T10:39:38.873Z,72.15
2022-11-28T10:42:17.669Z,71.70
2022-11-28T10:44:57.807Z,70.40
2022-11-28T10:48:29.596Z,69.93
2022-11-28T10:51:07.116Z,67.97
2022-11-28T10:54:22.280Z,67.90
2022-11-28T10:57:03.458Z,70.53
2022-11-28T10:59:58.277Z,68.80
2022-11-28T11:02:36.877Z,64.32
2022-11-28T11:05:05.419Z,63.58
2022-11-28T11:07:33.372Z,59.92
2022-11-28T11:10:17.916Z,60.00
2022-11-28T11:12:45.200Z,58.47
2022-11-28T11:15:19.041Z,53.92
2022-11-28T11:17:46.184Z,52.63
2022-11-28T11:20:39.483Z,55.78
2022-11-28T11:23:13.117Z,55.70
2022-11-28T11:25:55.472Z,52.10
2022-11-28T11:28:42.061Z,49.88
2022-11-28T11:31:32.303Z,47.90
2022-11-28T11:34:04.137Z,45.55
2022-11-28T11:36:35.723Z,49.03
2022-11-28T11:39:12.445Z,46.60
2022-11-28T11:41:42.943Z,47.72
2022-11-28T11:44:16.020Z,46.03
2022-11-28T11:47:01.854Z,43.10
2022-11-28T11:49:35.248Z,39.47
2022-11-28T11:52:23.334Z,39.53
2022-11-28T11:55:06.954Z,41.78
2022-11-28T11:57:39.982Z,38.53
2022-11-28T12:00:10.781Z,38.10
2022-11-28T12:02:50.789Z,36.95
2022-11-28T12:05:20.000Z,36.45
2022-11-28T12:07:52.888Z,38.25
2022-11-28T12:10:21.655Z,36.70
2022-11-28T12:12:48.402Z,35.13
2022-11-28T12:15:28.992Z,36.03
2022-11-28T12:18:04.518Z,34.70
2022-11-28T12:20:53.818Z,33.72
2022-11-28T12:23:57.226Z,36.17
2022-11-28T12:26:39.748Z,34.10
2022-11-28T12:29:23.764Z,31.58
2022-11-28T12:32:09.586Z,30.75
2022-11-28T12:34:44.146Z,32.35
2022-11-28T12:37:54.694Z,34.25
2022-11-28T12:40:23.339Z,34.25
2022-11-28T12:42:59.593Z,33.05
2022-11-28T12:45:43.448Z,34.33
2022-11-28T12:48:32.511Z,34.75
2022-11-28T12:51:03.294Z,33.83
2022-11-28T12:53:40.004Z,35.60
2022-11-28T12:56:16.070Z,37.55
2022-11-28T12:59:08.947Z,36.72
2022-11-28T13:01:51.069Z,33.80
2022-11-28T13:04:48.007Z,35.45
2022-11-28T13:07:36.168Z,35.95
2022-11-28T13:10:13.480Z,34.92
2022-11-28T13:12:49.722Z,34.10
2022-11-28T13:15:25.506Z,35.90
2022-11-28T13:17:55.612Z,35.88
2022-11-28T13:20:29.899Z,34.90
2022-11-28T13:23:14.917Z,36.50
2022-11-28T13:25:50.287Z,35.33
2022-11-28T13:28:26.287Z,33.35
2022-11-28T13:30:56.310Z,33.83
2022-11-28T13:33:38.563Z,31.20
2022-11-28T13:36:07.046Z,33.08
2022-11-28T13:39:11.954Z,31.25
2022-11-28T13:42:14.242Z,29.05
2022-11-28T13:45:19.227Z,30.35
2022-11-28T13:47:46.282Z,28.50
2022-11-28T13:50:22.957Z,29.42
2022-11-28T13:53:10.517Z,29.35
2022-11-28T13:55:46.979Z,28.88
2022-11-28T13:58:40.409Z,31.65
2022-11-28T14:01:09.245Z,31.17
2022-11-28T14:03:53.733Z,29.45
2022-11-28T14:06:22.325Z,29.02
2022-11-28T14:09:06.149Z,33.30
2022-11-28T14:11:43.530Z,31.38
2022-11-28T14:14:20.809Z,33.55
2022-11-28T14:16:57.121Z,33.55
2022-11-28T14:19:45.836Z,36.28
2022-11-28T14:22:22.220Z,36.63
2022-11-28T14:25:02.979Z,36.47
2022-11-28T14:27:33.268Z,35.85
2022-11-28T14:30:00.322Z,34.88
2022-11-28T14:32:35.803Z,38.13
2022-11-28T14:35:03.884Z,37.72
2022-11-28T14:37:34.792Z,37.60
2022-11-28T14:40:01.948Z,38.60
2022-11-28T14:42:59.114Z,38.47
2022-11-28T14:45:33.209Z,37.42
2022-11-28T14:48:22.802Z,37.65
2022-11-28T14:50:54.764Z,47.58
2022-11-28T14:53:44.720Z,49.30
2022-11-28T14:56:14.985Z,49.67
2022-11-28T14:58:48.495Z,56.78
2022-11-28T15:01:19.818Z,61.72
2022-11-28T15:03:59.438Z,59.20
2022-11-28T15:06:36.175Z,57.28
2022-11-28T15:09:17.950Z,54.63
2022-11-28T15:12:11.574Z,60.58
2022-11-28T15:14:38.450Z,61.80
2022-11-28T15:17:06.874Z,62.85
2022-11-28T15:19:38.252Z,64.65
2022-11-28T15:22:05.382Z,60.45
2022-11-28T15:24:32.968Z,58.60
2022-11-28T15:27:09.188Z,58.97
2022-11-28T15:29:36.360Z,59.28
2022-11-28T15:32:03.504Z,59.38
2022-11-28T15:34:34.977Z,57.88
2022-11-28T15:37:03.713Z,57.97
2022-11-28T15:39:35.039Z,56.83
2022-11-28T15:42:03.239Z,58.15
2022-11-28T15:44:30.019Z,57.25
2022-11-28T15:46:57.133Z,59.22
2022-11-28T15:49:40.682Z,58.45
2022-11-28T15:52:07.744Z,57.80
2022-11-28T15:54:38.565Z,58.35
2022-11-28T15:57:06.023Z,56.53
2022-11-28T15:59:33.000Z,57.08
2022-11-28T16:02:07.912Z,56.90
2022-11-28T16:04:34.718Z,57.30
2022-11-28T16:07:02.104Z,56.35
2022-11-28T16:09:30.068Z,55.58
2022-11-28T16:11:57.173Z,57.00
2022-11-28T16:14:32.273Z,55.25
2022-11-28T16:16:59.727Z,56.08
2022-11-28T16:19:28.100Z,59.40
2022-11-28T16:21:57.487Z,59.83
2022-11-28T16:24:32.465Z,61.65
2022-11-28T16:27:06.127Z,61.85
2022-11-28T16:29:34.948Z,59.42
2022-11-28T16:32:21.889Z,58.40
2022-11-28T16:34:50.030Z,55.53
2022-11-28T16:37:24.191Z,56.35
2022-11-28T16:40:17.181Z,55.78
2022-11-28T16:42:52.230Z,53.35
2022-11-28T16:45:22.011Z,54.95
2022-11-28T16:48:21.917Z,60.83
2022-11-28T16:51:10.746Z,61.40
2022-11-28T16:53:55.228Z,61.67
2022-11-28T16:56:31.268Z,63.28
2022-11-28T16:59:03.713Z,65.10
2022-11-28T17:01:30.613Z,68.75
2022-11-28T17:03:57.890Z,66.93
2022-11-28T17:06:28.863Z,67.63
2022-11-28T17:08:56.441Z,69.10
2022-11-28T17:11:24.285Z,68.30
2022-11-28T17:13:51.871Z,68.90
2022-11-28T17:16:23.415Z,67.13
2022-11-28T17:18:50.961Z,70.80
2022-11-28T17:21:22.869Z,68.57
2022-11-28T17:23:49.906Z,69.97
2022-11-28T17:26:16.709Z,74.68
2022-11-28T17:28:43.843Z,81.40
2022-11-28T17:31:13.307Z,75.93
2022-11-28T17:33:44.488Z,74.03
2022-11-28T17:36:12.183Z,76.30
2022-11-28T17:38:39.309Z,76.38
2022-11-28T17:41:06.251Z,80.32
2022-11-28T17:43:38.780Z,80.68
2022-11-28T17:46:06.139Z,79.13
2022-11-28T17:48:33.246Z,81.05
2022-11-28T17:51:02.014Z,83.32
2022-11-28T17:53:29.201Z,81.82
2022-11-28T17:55:59.081Z,82.07
2022-11-28T17:58:29.306Z,79.78
2022-11-28T18:01:00.579Z,79.82
2022-11-28T18:03:28.909Z,77.50
2022-11-28T18:05:55.774Z,76.45
2022-11-28T18:08:22.881Z,78.80
2022-11-28T18:10:49.682Z,78.53
2022-11-28T18:13:17.612Z,80.85
2022-11-28T18:15:47.095Z,75.80
2022-11-28T18:18:14.221Z,76.43
2022-11-28T18:20:41.057Z,77.28
2022-11-28T18:23:10.243Z,79.85
2022-11-28T18:25:41.264Z,77.13
2022-11-28T18:28:08.287Z,74.70
2022-11-28T18:30:35.019Z,76.78
2022-11-28T18:33:02.020Z,78.60
2022-11-28T18:35:28.816Z,76.13
2022-11-28T18:37:55.868Z,77.18
2022-11-28T18:40:22.743Z,75.68
2022-11-28T18:42:49.792Z,71.57
2022-11-28T18:45:16.607Z,74.38
2022-11-28T18:47:43.680Z,77.90
2022-11-28T18:50:10.528Z,75.32
2022-11-28T18:52:37.729Z,74.45
2022-11-28T18:55:04.705Z,76.35
2022-11-28T18:57:33.676Z,78.45
2022-11-28T19:00:01.031Z,78.82
2022-11-28T19:02:28.952Z,79.35
2022-11-28T19:04:56.039Z,79.68
2022-11-28T19:07:23.272Z,75.00
2022-11-28T19:09:50.182Z,75.22
2022-11-28T19:12:19.353Z,72.50
2022-11-28T19:14:46.485Z,79.15
2022-11-28T19:17:13.537Z,80.45
2022-11-28T19:19:41.387Z,78.95
2022-11-28T19:22:08.670Z,78.03
2022-11-28T19:24:35.671Z,78.43
2022-11-28T19:27:02.887Z,74.35
2022-11-28T19:29:29.608Z,79.70
2022-11-28T19:31:56.751Z,79.65
2022-11-28T19:34:23.590Z,77.78
2022-11-28T19:36:51.230Z,81.72
2022-11-28T19:39:22.374Z,77.20
2022-11-28T19:41:49.876Z,80.15
2022-11-28T19:44:16.737Z,85.45
2022-11-28T19:46:44.076Z,80.25
2022-11-28T19:49:19.448Z,83.28
2022-11-28T19:51:47.218Z,79.57
2022-11-28T19:54:14.741Z,83.13
2022-11-28T19:56:41.892Z,90.18
2022-11-28T19:59:08.624Z,88.93
2022-11-28T20:01:35.819Z,92.78
2022-11-28T20:04:02.661Z,92.25
2022-11-28T20:06:30.669Z,91.65
2022-11-28T20:09:08.796Z,100.57
2022-11-28T20:11:36.231Z,93.32
2022-11-28T20:14:07.617Z,96.38
2022-11-28T20:16:35.733Z,98.20
2022-11-28T20:19:02.648Z,93.95
2022-11-28T20:21:30.840Z,97.97
2022-11-28T20:23:59.765Z,90.65
2022-11-28T20:26:27.112Z,94.50
2022-11-28T20:28:54.727Z,94.35
2022-11-28T20:31:24.321Z,95.32
2022-11-28T20:33:51.734Z,92.97
2022-11-28T20:36:19.799Z,94.68
2022-11-28T20:38:46.819Z,92.32
2022-11-28T20:41:14.614Z,92.78
2022-11-28T20:43:41.605Z,92.45
2022-11-28T20:46:11.121Z,90.07
2022-11-28T20:48:38.137Z,85.90
2022-11-28T20:51:12.781Z,85.38
2022-11-28T20:53:41.359Z,91.80
2022-11-28T20:56:13.206Z,90.53
2022-11-28T20:58:40.065Z,89.90
2022-11-28T21:01:07.351Z,88.35
2022-11-28T21:03:34.445Z,87.90
2022-11-28T21:06:01.824Z,86.95
2022-11-28T21:08:31.370Z,85.00
2022-11-28T21:10:58.591Z,88.57
2022-11-28T21:13:25.352Z,89.00
2022-11-28T21:15:53.542Z,89.53
2022-11-28T21:18:20.384Z,90.25
2022-11-28T21:20:47.632Z,87.32
2022-11-28T21:23:15.434Z,86.38
2022-11-28T21:25:43.245Z,94.80
2022-11-28T21:28:12.161Z,93.18
2022-11-28T21:30:46.234Z,91.20
2022-11-28T21:33:13.170Z,90.00
2022-11-28T21:35:40.351Z,89.68
2022-11-28T21:38:07.491Z,97.82
2022-11-28T21:40:34.555Z,93.63
2022-11-28T21:43:01.349Z,94.25
2022-11-28T21:45:28.502Z,93.28
2022-11-28T21:47:55.346Z,96.93
2022-11-28T21:50:22.409Z,93.10
2022-11-28T21:52:49.247Z,96.60
2022-11-28T21:55:16.337Z,92.85
2022-11-28T21:57:43.272Z,95.40
2022-11-28T22:00:20.787Z,95.60
2022-11-28T22:03:02.935Z,91.72
2022-11-28T22:05:32.880Z,93.18
2022-11-28T22:07:59.713Z,94.22
2022-11-28T22:10:27.983Z,91.07
2022-11-28T22:12:54.772Z,92.38
2022-11-28T22:15:22.267Z,90.30
2022-11-28T22:17:49.145Z,90.65
2022-11-28T22:20:16.197Z,93.53
2022-11-28T22:22:42.909Z,90.95
2022-11-28T22:25:10.131Z,90.63
2022-11-28T22:27:38.066Z,93.00
2022-11-28T22:30:06.269Z,87.03
2022-11-28T22:32:33.037Z,87.35
2022-11-28T22:35:00.205Z,88.55
2022-11-28T22:37:27.333Z,90.50
2022-11-28T22:39:54.392Z,86.65
2022-11-28T22:42:21.153Z,86.10
2022-11-28T22:44:48.230Z,87.18
2022-11-28T22:47:15.000Z,89.28
2022-11-28T22:49:42.074Z,85.90
2022-11-28T22:52:08.878Z,86.45
2022-11-28T22:54:35.922Z,85.95
2022-11-28T22:57:02.673Z,88.07
2022-11-28T22:59:33.610Z,87.72
2022-11-28T23:02:00.564Z,84.22
2022-11-28T23:04:27.717Z,87.70
2022-11-28T23:06:54.446Z,85.00
2022-11-28T23:09:21.486Z,88.43
2022-11-28T23:11:48.274Z,85.28
2022-11-28T23:14:15.569Z,83.72
2022-11-28T23:16:43.130Z,84.85
2022-11-28T23:19:12.684Z,83.72
2022-11-28T23:21:40.528Z,84.15
2022-11-28T23:24:07.785Z,84.32
2022-11-28T23:26:34.852Z,83.13
2022-11-28T23:29:03.100Z,84.65
2022-11-28T23:31:31.341Z,80.28
2022-11-28T23:33:58.622Z,84.18
2022-11-28T23:36:27.377Z,84.40
2022-11-28T23:38:55.773Z,83.13
2022-11-28T23:41:22.705Z,85.68
2022-11-28T23:43:49.848Z,80.07
2022-11-28T23:46:17.422Z,84.35
2022-11-28T23:48:45.224Z,80.93
2022-11-28T23:51:15.365Z,79.15
2022-11-28T23:53:42.765Z,78.72
2022-11-28T23:56:10.508Z,79.85
2022-11-28T23:58:37.630Z,80.13
